sensor_id;sensor_type;location;lat;lon;timestamp;P1;durP1;ratioP1;P2;durP2;ratioP2
31990;SDS011;18508;49.386;8.370;2023-05-23T00:01:19;83.28;;;45.20;;
31990;SDS011;18508;49.386;8.370;2023-05-23T00:03:48;84.57;;;45.22;;
31990;SDS011;18508;49.386;8.370;2023-05-23T00:06:19;88.53;;;46.13;;
31990;SDS011;18508;49.386;8.370;2023-05-23T00:08:47;82.25;;;44.40;;
31990;SDS011;18508;49.386;8.370;2023-05-23T00:11:16;82.05;;;43.83;;
31990;SDS011;18508;49.386;8.370;2023-05-23T00:13:45;78.60;;;43.38;;
31990;SDS011;18508;49.386;8.370;2023-05-23T00:16:14;79.40;;;43.63;;
31990;SDS011;18508;49.386;8.370;2023-05-23T00:18:43;86.63;;;45.05;;
31990;SDS011;18508;49.386;8.370;2023-05-23T00:21:12;81.47;;;43.05;;
31990;SDS011;18508;49.386;8.370;2023-05-23T00:23:41;84.18;;;44.63;;
31990;SDS011;18508;49.386;8.370;2023-05-23T00:26:13;79.77;;;44.60;;
31990;SDS011;18508;49.386;8.370;2023-05-23T00:28:41;79.57;;;44.17;;
31990;SDS011;18508;49.386;8.370;2023-05-23T00:31:11;74.18;;;42.78;;
31990;SDS011;18508;49.386;8.370;2023-05-23T00:33:39;78.07;;;43.53;;
31990;SDS011;18508;49.386;8.370;2023-05-23T00:36:08;76.43;;;42.08;;
31990;SDS011;18508;49.386;8.370;2023-05-23T00:38:38;79.03;;;42.58;;
31990;SDS011;18508;49.386;8.370;2023-05-23T00:41:06;77.10;;;41.47;;
31990;SDS011;18508;49.386;8.370;2023-05-23T00:43:34;70.78;;;39.92;;
31990;SDS011;18508;49.386;8.370;2023-05-23T00:46:02;74.35;;;40.72;;
31990;SDS011;18508;49.386;8.370;2023-05-23T00:48:31;70.57;;;38.90;;
31990;SDS011;18508;49.386;8.370;2023-05-23T00:51:00;69.45;;;37.83;;
31990;SDS011;18508;49.386;8.370;2023-05-23T00:53:30;68.13;;;38.60;;
31990;SDS011;18508;49.386;8.370;2023-05-23T00:55:58;64.72;;;37.08;;
31990;SDS011;18508;49.386;8.370;2023-05-23T00:58:27;64.80;;;38.22;;
31990;SDS011;18508;49.386;8.370;2023-05-23T01:00:57;62.63;;;36.63;;
31990;SDS011;18508;49.386;8.370;2023-05-23T01:03:26;64.43;;;37.33;;
31990;SDS011;18508;49.386;8.370;2023-05-23T01:05:55;66.97;;;37.13;;
31990;SDS011;18508;49.386;8.370;2023-05-23T01:08:24;61.80;;;36.70;;
31990;SDS011;18508;49.386;8.370;2023-05-23T01:10:54;62.30;;;38.22;;
31990;SDS011;18508;49.386;8.370;2023-05-23T01:13:28;57.08;;;34.60;;
31990;SDS011;18508;49.386;8.370;2023-05-23T01:16:06;60.22;;;36.97;;
31990;SDS011;18508;49.386;8.370;2023-05-23T01:18:42;58.80;;;37.28;;
31990;SDS011;18508;49.386;8.370;2023-05-23T01:21:18;60.53;;;36.42;;
31990;SDS011;18508;49.386;8.370;2023-05-23T01:26:59;58.08;;;35.88;;
31990;SDS011;18508;49.386;8.370;2023-05-23T01:32:08;55.78;;;33.92;;
31990;SDS011;18508;49.386;8.370;2023-05-23T01:34:38;51.75;;;32.42;;
31990;SDS011;18508;49.386;8.370;2023-05-23T01:37:08;56.53;;;33.88;;
31990;SDS011;18508;49.386;8.370;2023-05-23T01:39:37;53.85;;;33.42;;
31990;SDS011;18508;49.386;8.370;2023-05-23T01:42:07;58.72;;;35.63;;
31990;SDS011;18508;49.386;8.370;2023-05-23T01:44:37;59.22;;;35.72;;
31990;SDS011;18508;49.386;8.370;2023-05-23T01:47:07;60.38;;;35.50;;
31990;SDS011;18508;49.386;8.370;2023-05-23T01:49:36;57.30;;;34.65;;
31990;SDS011;18508;49.386;8.370;2023-05-23T01:52:06;52.80;;;34.20;;
31990;SDS011;18508;49.386;8.370;2023-05-23T01:54:36;60.80;;;36.67;;
31990;SDS011;18508;49.386;8.370;2023-05-23T01:57:09;60.70;;;36.77;;
31990;SDS011;18508;49.386;8.370;2023-05-23T01:59:41;56.40;;;35.50;;
31990;SDS011;18508;49.386;8.370;2023-05-23T02:02:10;57.97;;;36.40;;
31990;SDS011;18508;49.386;8.370;2023-05-23T02:04:38;64.80;;;37.65;;
31990;SDS011;18508;49.386;8.370;2023-05-23T02:07:06;58.40;;;36.88;;
31990;SDS011;18508;49.386;8.370;2023-05-23T02:09:34;60.58;;;37.38;;
31990;SDS011;18508;49.386;8.370;2023-05-23T02:12:03;60.55;;;36.95;;
31990;SDS011;18508;49.386;8.370;2023-05-23T02:14:35;60.55;;;36.38;;
31990;SDS011;18508;49.386;8.370;2023-05-23T02:17:08;62.00;;;37.27;;
31990;SDS011;18508;49.386;8.370;2023-05-23T02:19:37;60.72;;;36.72;;
31990;SDS011;18508;49.386;8.370;2023-05-23T02:22:05;64.72;;;36.75;;
31990;SDS011;18508;49.386;8.370;2023-05-23T02:24:33;63.70;;;40.08;;
31990;SDS011;18508;49.386;8.370;2023-05-23T02:27:02;66.82;;;37.88;;
31990;SDS011;18508;49.386;8.370;2023-05-23T02:29:31;63.35;;;38.28;;
31990;SDS011;18508;49.386;8.370;2023-05-23T02:32:01;63.88;;;37.58;;
31990;SDS011;18508;49.386;8.370;2023-05-23T02:34:30;62.42;;;38.20;;
31990;SDS011;18508;49.386;8.370;2023-05-23T02:36:59;63.13;;;36.60;;
31990;SDS011;18508;49.386;8.370;2023-05-23T02:39:27;61.70;;;38.88;;
31990;SDS011;18508;49.386;8.370;2023-05-23T02:41:56;66.45;;;38.45;;
31990;SDS011;18508;49.386;8.370;2023-05-23T02:44:24;69.07;;;38.30;;
31990;SDS011;18508;49.386;8.370;2023-05-23T02:46:53;67.03;;;38.60;;
31990;SDS011;18508;49.386;8.370;2023-05-23T02:49:21;65.70;;;36.90;;
31990;SDS011;18508;49.386;8.370;2023-05-23T02:51:50;61.83;;;38.72;;
31990;SDS011;18508;49.386;8.370;2023-05-23T02:54:18;62.08;;;37.65;;
31990;SDS011;18508;49.386;8.370;2023-05-23T02:56:46;67.68;;;38.90;;
31990;SDS011;18508;49.386;8.370;2023-05-23T02:59:16;62.38;;;36.70;;
31990;SDS011;18508;49.386;8.370;2023-05-23T03:01:44;59.25;;;36.92;;
31990;SDS011;18508;49.386;8.370;2023-05-23T03:04:12;65.93;;;37.92;;
31990;SDS011;18508;49.386;8.370;2023-05-23T03:06:41;58.00;;;36.88;;
31990;SDS011;18508;49.386;8.370;2023-05-23T03:09:10;63.78;;;37.40;;
31990;SDS011;18508;49.386;8.370;2023-05-23T03:11:38;64.82;;;36.83;;
31990;SDS011;18508;49.386;8.370;2023-05-23T03:14:07;59.25;;;36.25;;
31990;SDS011;18508;49.386;8.370;2023-05-23T03:16:35;58.83;;;35.13;;
31990;SDS011;18508;49.386;8.370;2023-05-23T03:19:03;60.60;;;36.88;;
31990;SDS011;18508;49.386;8.370;2023-05-23T03:21:32;58.63;;;36.13;;
31990;SDS011;18508;49.386;8.370;2023-05-23T03:24:01;59.53;;;36.72;;
31990;SDS011;18508;49.386;8.370;2023-05-23T03:26:31;54.88;;;36.30;;
31990;SDS011;18508;49.386;8.370;2023-05-23T03:29:02;56.78;;;35.33;;
31990;SDS011;18508;49.386;8.370;2023-05-23T03:31:30;53.17;;;32.35;;
31990;SDS011;18508;49.386;8.370;2023-05-23T03:33:58;54.63;;;34.30;;
31990;SDS011;18508;49.386;8.370;2023-05-23T03:36:27;53.78;;;33.97;;
31990;SDS011;18508;49.386;8.370;2023-05-23T03:38:59;49.95;;;32.35;;
31990;SDS011;18508;49.386;8.370;2023-05-23T03:41:28;53.83;;;34.42;;
31990;SDS011;18508;49.386;8.370;2023-05-23T03:43:58;53.63;;;33.58;;
31990;SDS011;18508;49.386;8.370;2023-05-23T03:46:26;55.97;;;32.58;;
31990;SDS011;18508;49.386;8.370;2023-05-23T03:48:55;52.22;;;32.67;;
31990;SDS011;18508;49.386;8.370;2023-05-23T03:51:23;53.97;;;32.97;;
31990;SDS011;18508;49.386;8.370;2023-05-23T03:53:53;55.92;;;33.08;;
31990;SDS011;18508;49.386;8.370;2023-05-23T03:56:21;54.90;;;31.80;;
31990;SDS011;18508;49.386;8.370;2023-05-23T03:58:50;49.38;;;31.08;;
31990;SDS011;18508;49.386;8.370;2023-05-23T04:01:18;50.60;;;30.67;;
31990;SDS011;18508;49.386;8.370;2023-05-23T04:03:48;50.63;;;31.55;;
31990;SDS011;18508;49.386;8.370;2023-05-23T04:06:16;49.95;;;31.05;;
31990;SDS011;18508;49.386;8.370;2023-05-23T04:08:45;50.78;;;30.05;;
31990;SDS011;18508;49.386;8.370;2023-05-23T04:11:13;50.67;;;31.45;;
31990;SDS011;18508;49.386;8.370;2023-05-23T04:13:43;48.45;;;29.92;;
31990;SDS011;18508;49.386;8.370;2023-05-23T04:16:13;46.60;;;30.30;;
31990;SDS011;18508;49.386;8.370;2023-05-23T04:18:42;50.10;;;31.05;;
31990;SDS011;18508;49.386;8.370;2023-05-23T04:21:12;51.05;;;30.40;;
31990;SDS011;18508;49.386;8.370;2023-05-23T04:23:40;52.75;;;32.60;;
31990;SDS011;18508;49.386;8.370;2023-05-23T04:26:09;49.53;;;31.50;;
31990;SDS011;18508;49.386;8.370;2023-05-23T04:28:39;49.25;;;30.63;;
31990;SDS011;18508;49.386;8.370;2023-05-23T04:31:11;50.55;;;31.85;;
31990;SDS011;18508;49.386;8.370;2023-05-23T04:33:41;48.85;;;29.65;;
31990;SDS011;18508;49.386;8.370;2023-05-23T04:36:09;50.40;;;31.75;;
31990;SDS011;18508;49.386;8.370;2023-05-23T04:38:41;49.63;;;31.48;;
31990;SDS011;18508;49.386;8.370;2023-05-23T04:41:09;48.78;;;31.00;;
31990;SDS011;18508;49.386;8.370;2023-05-23T04:43:37;50.97;;;31.23;;
31990;SDS011;18508;49.386;8.370;2023-05-23T04:46:08;49.80;;;30.38;;
31990;SDS011;18508;49.386;8.370;2023-05-23T04:48:36;44.47;;;29.23;;
31990;SDS011;18508;49.386;8.370;2023-05-23T04:51:06;45.85;;;29.20;;
31990;SDS011;18508;49.386;8.370;2023-05-23T04:53:35;42.15;;;27.17;;
31990;SDS011;18508;49.386;8.370;2023-05-23T04:56:04;40.75;;;27.30;;
31990;SDS011;18508;49.386;8.370;2023-05-23T04:58:34;41.38;;;25.25;;
31990;SDS011;18508;49.386;8.370;2023-05-23T05:01:02;42.80;;;26.02;;
31990;SDS011;18508;49.386;8.370;2023-05-23T05:03:31;35.67;;;23.45;;
31990;SDS011;18508;49.386;8.370;2023-05-23T05:06:01;38.20;;;23.25;;
31990;SDS011;18508;49.386;8.370;2023-05-23T05:08:31;36.22;;;23.02;;
31990;SDS011;18508;49.386;8.370;2023-05-23T05:10:59;33.72;;;22.45;;
31990;SDS011;18508;49.386;8.370;2023-05-23T05:13:27;31.27;;;21.58;;
31990;SDS011;18508;49.386;8.370;2023-05-23T05:15:56;31.50;;;21.40;;
31990;SDS011;18508;49.386;8.370;2023-05-23T05:18:26;34.78;;;21.85;;
31990;SDS011;18508;49.386;8.370;2023-05-23T05:20:54;32.85;;;21.25;;
31990;SDS011;18508;49.386;8.370;2023-05-23T05:23:24;33.80;;;21.48;;
31990;SDS011;18508;49.386;8.370;2023-05-23T05:25:56;34.88;;;21.98;;
31990;SDS011;18508;49.386;8.370;2023-05-23T05:28:29;31.40;;;20.65;;
31990;SDS011;18508;49.386;8.370;2023-05-23T05:30:57;32.05;;;20.20;;
31990;SDS011;18508;49.386;8.370;2023-05-23T05:33:30;30.30;;;19.83;;
31990;SDS011;18508;49.386;8.370;2023-05-23T05:36:01;31.70;;;20.27;;
31990;SDS011;18508;49.386;8.370;2023-05-23T05:38:30;30.80;;;20.10;;
31990;SDS011;18508;49.386;8.370;2023-05-23T05:41:03;30.00;;;19.88;;
31990;SDS011;18508;49.386;8.370;2023-05-23T05:43:34;25.85;;;18.40;;
31990;SDS011;18508;49.386;8.370;2023-05-23T05:46:02;28.10;;;18.13;;
31990;SDS011;18508;49.386;8.370;2023-05-23T05:48:31;31.08;;;19.15;;
31990;SDS011;18508;49.386;8.370;2023-05-23T05:50:59;30.90;;;19.42;;
31990;SDS011;18508;49.386;8.370;2023-05-23T05:53:28;30.02;;;18.88;;
31990;SDS011;18508;49.386;8.370;2023-05-23T05:55:56;30.17;;;19.65;;
31990;SDS011;18508;49.386;8.370;2023-05-23T05:58:26;31.30;;;20.13;;
31990;SDS011;18508;49.386;8.370;2023-05-23T06:00:54;32.63;;;20.38;;
31990;SDS011;18508;49.386;8.370;2023-05-23T06:03:22;30.90;;;19.88;;
31990;SDS011;18508;49.386;8.370;2023-05-23T06:05:51;30.85;;;19.95;;
31990;SDS011;18508;49.386;8.370;2023-05-23T06:08:19;33.67;;;19.85;;
31990;SDS011;18508;49.386;8.370;2023-05-23T06:10:48;31.63;;;19.15;;
31990;SDS011;18508;49.386;8.370;2023-05-23T06:13:16;31.15;;;20.63;;
31990;SDS011;18508;49.386;8.370;2023-05-23T06:15:45;30.60;;;19.70;;
31990;SDS011;18508;49.386;8.370;2023-05-23T06:18:16;31.63;;;20.10;;
31990;SDS011;18508;49.386;8.370;2023-05-23T06:20:44;34.55;;;21.77;;
31990;SDS011;18508;49.386;8.370;2023-05-23T06:23:12;33.78;;;19.33;;
31990;SDS011;18508;49.386;8.370;2023-05-23T06:25:40;32.20;;;19.77;;
31990;SDS011;18508;49.386;8.370;2023-05-23T06:28:08;32.60;;;20.70;;
31990;SDS011;18508;49.386;8.370;2023-05-23T06:30:37;34.30;;;21.50;;
31990;SDS011;18508;49.386;8.370;2023-05-23T06:33:07;31.63;;;20.05;;
31990;SDS011;18508;49.386;8.370;2023-05-23T06:35:37;34.30;;;21.20;;
31990;SDS011;18508;49.386;8.370;2023-05-23T06:38:05;28.90;;;18.35;;
31990;SDS011;18508;49.386;8.370;2023-05-23T06:40:34;32.85;;;20.35;;
31990;SDS011;18508;49.386;8.370;2023-05-23T06:43:02;29.40;;;18.95;;
31990;SDS011;18508;49.386;8.370;2023-05-23T06:45:32;29.08;;;19.38;;
31990;SDS011;18508;49.386;8.370;2023-05-23T06:48:01;28.55;;;18.80;;
31990;SDS011;18508;49.386;8.370;2023-05-23T06:50:30;28.42;;;16.83;;
31990;SDS011;18508;49.386;8.370;2023-05-23T06:52:59;25.27;;;16.73;;
31990;SDS011;18508;49.386;8.370;2023-05-23T06:55:28;25.98;;;17.00;;
31990;SDS011;18508;49.386;8.370;2023-05-23T06:57:59;25.73;;;15.80;;
31990;SDS011;18508;49.386;8.370;2023-05-23T07:00:30;24.38;;;15.70;;
31990;SDS011;18508;49.386;8.370;2023-05-23T07:02:58;20.98;;;13.63;;
31990;SDS011;18508;49.386;8.370;2023-05-23T07:05:29;22.02;;;13.98;;
31990;SDS011;18508;49.386;8.370;2023-05-23T07:07:59;20.90;;;13.15;;
31990;SDS011;18508;49.386;8.370;2023-05-23T07:10:28;20.15;;;12.85;;
31990;SDS011;18508;49.386;8.370;2023-05-23T07:12:56;20.75;;;12.80;;
31990;SDS011;18508;49.386;8.370;2023-05-23T07:15:24;21.67;;;13.15;;
31990;SDS011;18508;49.386;8.370;2023-05-23T07:17:52;22.45;;;13.80;;
31990;SDS011;18508;49.386;8.370;2023-05-23T07:20:20;19.55;;;13.05;;
31990;SDS011;18508;49.386;8.370;2023-05-23T07:22:50;20.77;;;12.45;;
31990;SDS011;18508;49.386;8.370;2023-05-23T07:25:18;16.95;;;11.77;;
31990;SDS011;18508;49.386;8.370;2023-05-23T07:27:49;18.00;;;11.63;;
31990;SDS011;18508;49.386;8.370;2023-05-23T07:30:20;18.05;;;11.60;;
31990;SDS011;18508;49.386;8.370;2023-05-23T07:32:48;16.48;;;11.23;;
31990;SDS011;18508;49.386;8.370;2023-05-23T07:35:18;17.58;;;12.02;;
31990;SDS011;18508;49.386;8.370;2023-05-23T07:37:52;18.30;;;12.05;;
31990;SDS011;18508;49.386;8.370;2023-05-23T07:40:21;21.65;;;12.02;;
31990;SDS011;18508;49.386;8.370;2023-05-23T07:42:49;18.75;;;10.90;;
31990;SDS011;18508;49.386;8.370;2023-05-23T07:45:18;17.35;;;11.48;;
31990;SDS011;18508;49.386;8.370;2023-05-23T07:47:47;16.40;;;10.70;;
31990;SDS011;18508;49.386;8.370;2023-05-23T07:50:18;17.33;;;10.55;;
31990;SDS011;18508;49.386;8.370;2023-05-23T07:52:47;14.82;;;10.77;;
31990;SDS011;18508;49.386;8.370;2023-05-23T07:55:17;18.52;;;11.82;;
31990;SDS011;18508;49.386;8.370;2023-05-23T07:57:46;14.80;;;10.63;;
31990;SDS011;18508;49.386;8.370;2023-05-23T08:00:16;16.83;;;9.80;;
31990;SDS011;18508;49.386;8.370;2023-05-23T08:02:45;14.90;;;9.65;;
31990;SDS011;18508;49.386;8.370;2023-05-23T08:05:13;12.80;;;9.35;;
31990;SDS011;18508;49.386;8.370;2023-05-23T08:07:42;15.07;;;10.02;;
31990;SDS011;18508;49.386;8.370;2023-05-23T08:10:10;13.43;;;9.85;;
31990;SDS011;18508;49.386;8.370;2023-05-23T08:12:39;14.52;;;9.48;;
31990;SDS011;18508;49.386;8.370;2023-05-23T08:15:08;11.18;;;7.90;;
31990;SDS011;18508;49.386;8.370;2023-05-23T08:17:36;11.63;;;8.43;;
31990;SDS011;18508;49.386;8.370;2023-05-23T08:20:06;10.88;;;7.93;;
31990;SDS011;18508;49.386;8.370;2023-05-23T08:22:37;9.18;;;7.38;;
31990;SDS011;18508;49.386;8.370;2023-05-23T08:25:06;11.25;;;8.10;;
31990;SDS011;18508;49.386;8.370;2023-05-23T08:27:35;10.98;;;7.82;;
31990;SDS011;18508;49.386;8.370;2023-05-23T08:30:05;12.48;;;8.00;;
31990;SDS011;18508;49.386;8.370;2023-05-23T08:32:35;8.82;;;7.10;;
31990;SDS011;18508;49.386;8.370;2023-05-23T08:35:03;9.00;;;6.20;;
31990;SDS011;18508;49.386;8.370;2023-05-23T08:37:32;8.45;;;6.47;;
31990;SDS011;18508;49.386;8.370;2023-05-23T08:40:00;7.05;;;5.55;;
31990;SDS011;18508;49.386;8.370;2023-05-23T08:42:29;7.82;;;5.53;;
31990;SDS011;18508;49.386;8.370;2023-05-23T08:44:59;6.80;;;5.93;;
31990;SDS011;18508;49.386;8.370;2023-05-23T08:47:29;7.72;;;5.78;;
31990;SDS011;18508;49.386;8.370;2023-05-23T08:50:01;8.30;;;5.80;;
31990;SDS011;18508;49.386;8.370;2023-05-23T08:52:31;7.15;;;5.32;;
31990;SDS011;18508;49.386;8.370;2023-05-23T08:55:01;7.55;;;5.20;;
31990;SDS011;18508;49.386;8.370;2023-05-23T08:57:29;9.02;;;5.20;;
31990;SDS011;18508;49.386;8.370;2023-05-23T08:59:57;6.57;;;5.22;;
31990;SDS011;18508;49.386;8.370;2023-05-23T09:02:29;7.63;;;5.15;;
31990;SDS011;18508;49.386;8.370;2023-05-23T09:05:01;9.00;;;5.32;;
31990;SDS011;18508;49.386;8.370;2023-05-23T09:07:30;7.10;;;5.05;;
31990;SDS011;18508;49.386;8.370;2023-05-23T09:09:58;7.07;;;5.20;;
31990;SDS011;18508;49.386;8.370;2023-05-23T09:12:26;6.80;;;4.93;;
31990;SDS011;18508;49.386;8.370;2023-05-23T09:14:54;7.25;;;4.90;;
31990;SDS011;18508;49.386;8.370;2023-05-23T09:17:22;6.18;;;4.60;;
31990;SDS011;18508;49.386;8.370;2023-05-23T09:19:52;6.03;;;3.88;;
31990;SDS011;18508;49.386;8.370;2023-05-23T09:22:23;6.00;;;4.28;;
31990;SDS011;18508;49.386;8.370;2023-05-23T09:24:52;4.78;;;3.72;;
31990;SDS011;18508;49.386;8.370;2023-05-23T09:27:21;6.03;;;4.32;;
31990;SDS011;18508;49.386;8.370;2023-05-23T09:29:50;6.85;;;3.45;;
31990;SDS011;18508;49.386;8.370;2023-05-23T09:32:18;4.72;;;3.50;;
31990;SDS011;18508;49.386;8.370;2023-05-23T09:34:55;4.60;;;3.28;;
31990;SDS011;18508;49.386;8.370;2023-05-23T09:37:28;5.80;;;3.45;;
31990;SDS011;18508;49.386;8.370;2023-05-23T09:39:58;5.38;;;3.80;;
31990;SDS011;18508;49.386;8.370;2023-05-23T09:42:30;7.85;;;3.78;;
31990;SDS011;18508;49.386;8.370;2023-05-23T09:47:30;4.85;;;3.47;;
31990;SDS011;18508;49.386;8.370;2023-05-23T09:49:59;4.38;;;3.28;;
31990;SDS011;18508;49.386;8.370;2023-05-23T09:52:32;5.40;;;3.50;;
31990;SDS011;18508;49.386;8.370;2023-05-23T09:55:02;5.93;;;3.20;;
31990;SDS011;18508;49.386;8.370;2023-05-23T09:57:32;7.22;;;3.45;;
31990;SDS011;18508;49.386;8.370;2023-05-23T10:00:03;5.97;;;3.47;;
31990;SDS011;18508;49.386;8.370;2023-05-23T10:02:40;4.80;;;3.40;;
31990;SDS011;18508;49.386;8.370;2023-05-23T10:05:29;6.18;;;3.92;;
31990;SDS011;18508;49.386;8.370;2023-05-23T10:08:01;5.45;;;3.67;;
31990;SDS011;18508;49.386;8.370;2023-05-23T10:10:32;6.78;;;3.97;;
31990;SDS011;18508;49.386;8.370;2023-05-23T10:15:44;5.72;;;4.00;;
31990;SDS011;18508;49.386;8.370;2023-05-23T10:18:15;5.45;;;4.00;;
31990;SDS011;18508;49.386;8.370;2023-05-23T10:20:48;6.22;;;4.53;;
31990;SDS011;18508;49.386;8.370;2023-05-23T10:23:23;6.40;;;4.50;;
31990;SDS011;18508;49.386;8.370;2023-05-23T10:25:52;5.72;;;3.88;;
31990;SDS011;18508;49.386;8.370;2023-05-23T10:28:20;4.82;;;4.00;;
31990;SDS011;18508;49.386;8.370;2023-05-23T10:30:50;5.13;;;4.13;;
31990;SDS011;18508;49.386;8.370;2023-05-23T10:33:18;6.13;;;4.57;;
31990;SDS011;18508;49.386;8.370;2023-05-23T10:35:52;6.65;;;4.35;;
31990;SDS011;18508;49.386;8.370;2023-05-23T10:38:30;7.32;;;4.95;;
31990;SDS011;18508;49.386;8.370;2023-05-23T10:41:05;9.25;;;5.07;;
31990;SDS011;18508;49.386;8.370;2023-05-23T10:43:42;6.85;;;5.22;;
31990;SDS011;18508;49.386;8.370;2023-05-23T10:46:15;6.45;;;4.90;;
31990;SDS011;18508;49.386;8.370;2023-05-23T10:48:50;6.82;;;5.00;;
31990;SDS011;18508;49.386;8.370;2023-05-23T10:51:23;6.07;;;4.57;;
31990;SDS011;18508;49.386;8.370;2023-05-23T10:53:52;6.20;;;4.95;;
31990;SDS011;18508;49.386;8.370;2023-05-23T10:56:21;6.32;;;5.07;;
31990;SDS011;18508;49.386;8.370;2023-05-23T10:58:53;6.57;;;4.85;;
31990;SDS011;18508;49.386;8.370;2023-05-23T11:01:22;5.97;;;4.50;;
31990;SDS011;18508;49.386;8.370;2023-05-23T11:03:51;6.65;;;5.30;;
31990;SDS011;18508;49.386;8.370;2023-05-23T11:06:29;6.97;;;5.32;;
31990;SDS011;18508;49.386;8.370;2023-05-23T11:09:02;7.03;;;5.13;;
31990;SDS011;18508;49.386;8.370;2023-05-23T11:11:54;6.00;;;4.13;;
31990;SDS011;18508;49.386;8.370;2023-05-23T11:14:31;7.85;;;4.88;;
31990;SDS011;18508;49.386;8.370;2023-05-23T11:17:14;6.10;;;4.93;;
31990;SDS011;18508;49.386;8.370;2023-05-23T11:19:57;7.53;;;4.82;;
31990;SDS011;18508;49.386;8.370;2023-05-23T11:22:28;5.97;;;4.95;;
31990;SDS011;18508;49.386;8.370;2023-05-23T11:24:57;6.07;;;4.50;;
31990;SDS011;18508;49.386;8.370;2023-05-23T11:27:27;5.28;;;4.38;;
31990;SDS011;18508;49.386;8.370;2023-05-23T11:29:56;6.32;;;4.35;;
31990;SDS011;18508;49.386;8.370;2023-05-23T11:32:26;7.47;;;5.55;;
31990;SDS011;18508;49.386;8.370;2023-05-23T11:34:58;8.20;;;5.35;;
31990;SDS011;18508;49.386;8.370;2023-05-23T11:37:28;6.47;;;5.32;;
31990;SDS011;18508;49.386;8.370;2023-05-23T11:39:57;6.85;;;5.28;;
31990;SDS011;18508;49.386;8.370;2023-05-23T11:42:27;7.15;;;5.50;;
31990;SDS011;18508;49.386;8.370;2023-05-23T11:44:55;8.55;;;5.88;;
31990;SDS011;18508;49.386;8.370;2023-05-23T11:47:23;8.30;;;6.22;;
31990;SDS011;18508;49.386;8.370;2023-05-23T11:49:51;7.63;;;5.70;;
31990;SDS011;18508;49.386;8.370;2023-05-23T11:52:20;9.98;;;6.20;;
31990;SDS011;18508;49.386;8.370;2023-05-23T11:54:49;9.35;;;6.18;;
31990;SDS011;18508;49.386;8.370;2023-05-23T11:57:21;7.25;;;5.68;;
31990;SDS011;18508;49.386;8.370;2023-05-23T11:59:49;10.07;;;6.28;;
31990;SDS011;18508;49.386;8.370;2023-05-23T12:02:19;10.00;;;7.55;;
31990;SDS011;18508;49.386;8.370;2023-05-23T12:04:48;12.95;;;7.75;;
31990;SDS011;18508;49.386;8.370;2023-05-23T12:07:18;10.73;;;7.65;;
31990;SDS011;18508;49.386;8.370;2023-05-23T12:09:46;8.35;;;6.57;;
31990;SDS011;18508;49.386;8.370;2023-05-23T12:12:15;10.15;;;6.75;;
31990;SDS011;18508;49.386;8.370;2023-05-23T12:14:45;10.20;;;7.38;;
31990;SDS011;18508;49.386;8.370;2023-05-23T12:17:14;9.07;;;7.32;;
31990;SDS011;18508;49.386;8.370;2023-05-23T12:19:44;9.10;;;6.50;;
31990;SDS011;18508;49.386;8.370;2023-05-23T12:22:13;10.73;;;6.85;;
31990;SDS011;18508;49.386;8.370;2023-05-23T12:24:44;10.40;;;6.60;;
31990;SDS011;18508;49.386;8.370;2023-05-23T12:27:14;9.82;;;6.05;;
31990;SDS011;18508;49.386;8.370;2023-05-23T12:29:49;8.43;;;6.63;;
31990;SDS011;18508;49.386;8.370;2023-05-23T12:32:17;12.45;;;7.22;;
31990;SDS011;18508;49.386;8.370;2023-05-23T12:34:46;8.40;;;6.05;;
31990;SDS011;18508;49.386;8.370;2023-05-23T12:37:16;10.93;;;6.70;;
31990;SDS011;18508;49.386;8.370;2023-05-23T12:39:46;11.15;;;6.97;;
31990;SDS011;18508;49.386;8.370;2023-05-23T12:42:14;9.20;;;5.97;;
31990;SDS011;18508;49.386;8.370;2023-05-23T12:44:44;8.80;;;6.65;;
31990;SDS011;18508;49.386;8.370;2023-05-23T12:47:16;8.45;;;6.30;;
31990;SDS011;18508;49.386;8.370;2023-05-23T12:49:44;8.20;;;6.38;;
31990;SDS011;18508;49.386;8.370;2023-05-23T12:52:12;9.98;;;6.10;;
31990;SDS011;18508;49.386;8.370;2023-05-23T12:54:41;9.95;;;7.32;;
31990;SDS011;18508;49.386;8.370;2023-05-23T12:57:09;9.63;;;6.78;;
31990;SDS011;18508;49.386;8.370;2023-05-23T12:59:37;9.57;;;7.35;;
31990;SDS011;18508;49.386;8.370;2023-05-23T13:02:06;11.18;;;7.55;;
31990;SDS011;18508;49.386;8.370;2023-05-23T13:04:34;11.05;;;8.05;;
31990;SDS011;18508;49.386;8.370;2023-05-23T13:07:03;13.25;;;9.07;;
31990;SDS011;18508;49.386;8.370;2023-05-23T13:09:31;12.40;;;9.27;;
31990;SDS011;18508;49.386;8.370;2023-05-23T13:11:59;13.82;;;8.95;;
31990;SDS011;18508;49.386;8.370;2023-05-23T13:14:27;14.00;;;10.10;;
31990;SDS011;18508;49.386;8.370;2023-05-23T13:16:56;11.90;;;8.40;;
31990;SDS011;18508;49.386;8.370;2023-05-23T13:19:26;13.00;;;9.25;;
31990;SDS011;18508;49.386;8.370;2023-05-23T13:21:54;10.32;;;8.05;;
31990;SDS011;18508;49.386;8.370;2023-05-23T13:24:22;11.57;;;9.00;;
31990;SDS011;18508;49.386;8.370;2023-05-23T13:26:50;12.40;;;8.77;;
31990;SDS011;18508;49.386;8.370;2023-05-23T13:29:19;12.98;;;8.80;;
31990;SDS011;18508;49.386;8.370;2023-05-23T13:31:47;13.82;;;10.55;;
31990;SDS011;18508;49.386;8.370;2023-05-23T13:34:16;13.05;;;9.90;;
31990;SDS011;18508;49.386;8.370;2023-05-23T13:36:45;11.05;;;8.82;;
31990;SDS011;18508;49.386;8.370;2023-05-23T13:39:14;11.65;;;8.75;;
31990;SDS011;18508;49.386;8.370;2023-05-23T13:41:45;10.88;;;8.70;;
31990;SDS011;18508;49.386;8.370;2023-05-23T13:44:13;12.82;;;8.88;;
31990;SDS011;18508;49.386;8.370;2023-05-23T13:46:41;10.68;;;8.82;;
31990;SDS011;18508;49.386;8.370;2023-05-23T13:49:10;12.68;;;8.65;;
31990;SDS011;18508;49.386;8.370;2023-05-23T13:51:38;11.40;;;8.80;;
31990;SDS011;18508;49.386;8.370;2023-05-23T13:54:08;11.68;;;8.05;;
31990;SDS011;18508;49.386;8.370;2023-05-23T13:56:38;10.40;;;7.32;;
31990;SDS011;18508;49.386;8.370;2023-05-23T13:59:06;8.38;;;6.85;;
31990;SDS011;18508;49.386;8.370;2023-05-23T14:01:35;7.60;;;6.22;;
31990;SDS011;18508;49.386;8.370;2023-05-23T14:04:03;8.27;;;6.35;;
31990;SDS011;18508;49.386;8.370;2023-05-23T14:06:32;7.70;;;6.22;;
31990;SDS011;18508;49.386;8.370;2023-05-23T14:09:02;8.63;;;6.70;;
31990;SDS011;18508;49.386;8.370;2023-05-23T14:11:32;10.02;;;6.95;;
31990;SDS011;18508;49.386;8.370;2023-05-23T14:14:01;7.80;;;6.75;;
31990;SDS011;18508;49.386;8.370;2023-05-23T14:16:29;11.60;;;6.28;;
31990;SDS011;18508;49.386;8.370;2023-05-23T14:18:58;6.95;;;5.15;;
31990;SDS011;18508;49.386;8.370;2023-05-23T14:21:27;7.68;;;5.15;;
31990;SDS011;18508;49.386;8.370;2023-05-23T14:23:56;7.68;;;5.60;;
31990;SDS011;18508;49.386;8.370;2023-05-23T14:26:24;9.15;;;5.70;;
31990;SDS011;18508;49.386;8.370;2023-05-23T14:28:54;8.23;;;6.35;;
31990;SDS011;18508;49.386;8.370;2023-05-23T14:31:25;7.65;;;5.65;;
31990;SDS011;18508;49.386;8.370;2023-05-23T14:33:53;7.82;;;6.05;;
31990;SDS011;18508;49.386;8.370;2023-05-23T14:36:21;8.70;;;7.20;;
31990;SDS011;18508;49.386;8.370;2023-05-23T14:38:51;10.23;;;7.70;;
31990;SDS011;18508;49.386;8.370;2023-05-23T14:41:19;11.60;;;7.28;;
31990;SDS011;18508;49.386;8.370;2023-05-23T14:43:48;10.48;;;7.18;;
31990;SDS011;18508;49.386;8.370;2023-05-23T14:46:18;11.85;;;7.22;;
31990;SDS011;18508;49.386;8.370;2023-05-23T14:48:47;13.07;;;9.40;;
31990;SDS011;18508;49.386;8.370;2023-05-23T14:51:16;10.60;;;8.65;;
31990;SDS011;18508;49.386;8.370;2023-05-23T14:54:04;14.20;;;9.18;;
31990;SDS011;18508;49.386;8.370;2023-05-23T14:56:33;11.38;;;8.50;;